sensor_id;sensor_type;location;lat;lon;timestamp;P1;durP1;ratioP1;P2;durP2;ratioP2
76758;SDS011;65701;45.588;5.186;2022-12-18T08:09:21;29.50;;;27.25;;
76758;SDS011;65701;45.588;5.186;2022-12-18T08:11:47;34.50;;;27.50;;
76758;SDS011;65701;45.588;5.186;2022-12-18T08:14:12;29.00;;;26.00;;
76758;SDS011;65701;45.588;5.186;2022-12-18T08:16:38;32.75;;;31.50;;
76758;SDS011;65701;45.588;5.186;2022-12-18T08:19:04;36.75;;;31.25;;
76758;SDS011;65701;45.588;5.186;2022-12-18T08:21:30;25.25;;;24.00;;
76758;SDS011;65701;45.588;5.186;2022-12-18T08:23:57;27.50;;;22.00;;
76758;SDS011;65701;45.588;5.186;2022-12-18T08:26:25;39.50;;;31.00;;
76758;SDS011;65701;45.588;5.186;2022-12-18T08:28:56;19.00;;;16.75;;
76758;SDS011;65701;45.588;5.186;2022-12-18T08:31:22;32.75;;;25.00;;
76758;SDS011;65701;45.588;5.186;2022-12-18T08:33:50;30.00;;;24.25;;
76758;SDS011;65701;45.588;5.186;2022-12-18T08:36:17;31.75;;;27.00;;
76758;SDS011;65701;45.588;5.186;2022-12-18T08:38:43;27.50;;;23.75;;
76758;SDS011;65701;45.588;5.186;2022-12-18T08:41:09;28.75;;;25.00;;
76758;SDS011;65701;45.588;5.186;2022-12-18T08:43:36;33.75;;;30.75;;
76758;SDS011;65701;45.588;5.186;2022-12-18T08:46:21;26.50;;;21.50;;
76758;SDS011;65701;45.588;5.186;2022-12-18T08:48:50;26.00;;;25.75;;
76758;SDS011;65701;45.588;5.186;2022-12-18T08:51:17;29.50;;;25.75;;
76758;SDS011;65701;45.588;5.186;2022-12-18T08:53:42;32.25;;;26.25;;
76758;SDS011;65701;45.588;5.186;2022-12-18T08:56:09;26.25;;;24.50;;
76758;SDS011;65701;45.588;5.186;2022-12-18T08:58:35;30.25;;;29.00;;
76758;SDS011;65701;45.588;5.186;2022-12-18T09:01:01;27.50;;;24.75;;
76758;SDS011;65701;45.588;5.186;2022-12-18T09:03:33;29.50;;;24.50;;
76758;SDS011;65701;45.588;5.186;2022-12-18T09:05:59;30.25;;;25.25;;
76758;SDS011;65701;45.588;5.186;2022-12-18T09:08:25;36.00;;;30.00;;
76758;SDS011;65701;45.588;5.186;2022-12-18T09:10:53;35.75;;;27.50;;
76758;SDS011;65701;45.588;5.186;2022-12-18T09:13:21;24.75;;;22.50;;
76758;SDS011;65701;45.588;5.186;2022-12-18T09:15:49;25.00;;;24.25;;
76758;SDS011;65701;45.588;5.186;2022-12-18T09:18:16;27.75;;;25.00;;
76758;SDS011;65701;45.588;5.186;2022-12-18T09:20:45;37.00;;;33.00;;
76758;SDS011;65701;45.588;5.186;2022-12-18T09:23:18;30.25;;;27.50;;
76758;SDS011;65701;45.588;5.186;2022-12-18T09:25:44;35.75;;;30.25;;
76758;SDS011;65701;45.588;5.186;2022-12-18T09:28:11;36.50;;;29.00;;
76758;SDS011;65701;45.588;5.186;2022-12-18T09:30:38;29.50;;;25.25;;
76758;SDS011;65701;45.588;5.186;2022-12-18T09:33:05;28.50;;;27.25;;
76758;SDS011;65701;45.588;5.186;2022-12-18T09:35:30;28.50;;;25.75;;
76758;SDS011;65701;45.588;5.186;2022-12-18T09:37:56;25.50;;;24.75;;
76758;SDS011;65701;45.588;5.186;2022-12-18T09:40:22;37.25;;;25.75;;
76758;SDS011;65701;45.588;5.186;2022-12-18T09:42:54;25.75;;;23.50;;
76758;SDS011;65701;45.588;5.186;2022-12-18T09:45:24;25.25;;;23.50;;
76758;SDS011;65701;45.588;5.186;2022-12-18T09:47:51;29.75;;;26.75;;
76758;SDS011;65701;45.588;5.186;2022-12-18T09:50:29;26.75;;;24.25;;
76758;SDS011;65701;45.588;5.186;2022-12-18T09:53:02;29.00;;;25.00;;
76758;SDS011;65701;45.588;5.186;2022-12-18T09:55:42;24.25;;;21.50;;
76758;SDS011;65701;45.588;5.186;2022-12-18T10:01:21;36.50;;;28.50;;
76758;SDS011;65701;45.588;5.186;2022-12-18T10:03:49;26.50;;;24.00;;
76758;SDS011;65701;45.588;5.186;2022-12-18T10:14:39;29.00;;;23.75;;
76758;SDS011;65701;45.588;5.186;2022-12-18T10:19:53;24.75;;;20.00;;
76758;SDS011;65701;45.588;5.186;2022-12-18T10:24:54;26.75;;;24.50;;
76758;SDS011;65701;45.588;5.186;2022-12-18T10:27:31;23.50;;;22.75;;
76758;SDS011;65701;45.588;5.186;2022-12-18T10:29:57;26.75;;;26.50;;
76758;SDS011;65701;45.588;5.186;2022-12-18T10:32:27;21.50;;;20.25;;
76758;SDS011;65701;45.588;5.186;2022-12-18T10:34:55;24.75;;;20.00;;
76758;SDS011;65701;45.588;5.186;2022-12-18T10:37:23;24.25;;;22.25;;
76758;SDS011;65701;45.588;5.186;2022-12-18T10:42:33;16.00;;;15.75;;
76758;SDS011;65701;45.588;5.186;2022-12-18T10:45:11;23.50;;;19.50;;
76758;SDS011;65701;45.588;5.186;2022-12-18T10:47:48;22.50;;;18.50;;
76758;SDS011;65701;45.588;5.186;2022-12-18T10:50:25;20.00;;;16.50;;
76758;SDS011;65701;45.588;5.186;2022-12-18T10:52:59;21.25;;;18.00;;
76758;SDS011;65701;45.588;5.186;2022-12-18T10:55:31;16.75;;;15.00;;
76758;SDS011;65701;45.588;5.186;2022-12-18T10:58:13;12.00;;;11.25;;
76758;SDS011;65701;45.588;5.186;2022-12-18T11:06:15;8.25;;;7.75;;
76758;SDS011;65701;45.588;5.186;2022-12-18T11:08:44;7.50;;;7.50;;
76758;SDS011;65701;45.588;5.186;2022-12-18T11:11:22;21.75;;;17.50;;
76758;SDS011;65701;45.588;5.186;2022-12-18T11:16:29;18.50;;;16.75;;
76758;SDS011;65701;45.588;5.186;2022-12-18T11:22:19;8.00;;;6.50;;
76758;SDS011;65701;45.588;5.186;2022-12-18T11:25:18;7.50;;;7.25;;
76758;SDS011;65701;45.588;5.186;2022-12-18T11:27:51;7.25;;;7.25;;
76758;SDS011;65701;45.588;5.186;2022-12-18T11:32:44;8.00;;;7.25;;
76758;SDS011;65701;45.588;5.186;2022-12-18T11:37:43;7.50;;;7.00;;
76758;SDS011;65701;45.588;5.186;2022-12-18T11:40:18;7.25;;;6.25;;
76758;SDS011;65701;45.588;5.186;2022-12-18T11:42:50;8.00;;;7.00;;
76758;SDS011;65701;45.588;5.186;2022-12-18T11:45:25;8.00;;;5.75;;
76758;SDS011;65701;45.588;5.186;2022-12-18T11:50:49;8.00;;;7.75;;
76758;SDS011;65701;45.588;5.186;2022-12-18T11:53:19;7.75;;;7.75;;
76758;SDS011;65701;45.588;5.186;2022-12-18T11:58:42;8.75;;;6.50;;
76758;SDS011;65701;45.588;5.186;2022-12-18T12:01:18;9.00;;;6.25;;
76758;SDS011;65701;45.588;5.186;2022-12-18T12:15:53;4.25;;;4.25;;
76758;SDS011;65701;45.588;5.186;2022-12-18T12:21:01;4.75;;;4.00;;
76758;SDS011;65701;45.588;5.186;2022-12-18T12:31:58;5.00;;;5.00;;
76758;SDS011;65701;45.588;5.186;2022-12-18T12:40:10;4.25;;;3.00;;
76758;SDS011;65701;45.588;5.186;2022-12-18T12:42:44;4.25;;;3.00;;
76758;SDS011;65701;45.588;5.186;2022-12-18T12:45:48;3.00;;;3.00;;
76758;SDS011;65701;45.588;5.186;2022-12-18T12:48:40;4.00;;;4.00;;
76758;SDS011;65701;45.588;5.186;2022-12-18T12:51:20;3.50;;;3.50;;
76758;SDS011;65701;45.588;5.186;2022-12-18T12:53:47;4.75;;;3.75;;
76758;SDS011;65701;45.588;5.186;2022-12-18T12:56:18;5.00;;;3.50;;
76758;SDS011;65701;45.588;5.186;2022-12-18T12:58:54;5.00;;;3.75;;
76758;SDS011;65701;45.588;5.186;2022-12-18T13:04:52;3.50;;;3.50;;
76758;SDS011;65701;45.588;5.186;2022-12-18T13:10:41;5.00;;;3.00;;
76758;SDS011;65701;45.588;5.186;2022-12-18T13:13:12;3.00;;;3.00;;
76758;SDS011;65701;45.588;5.186;2022-12-18T13:15:43;4.75;;;3.25;;
76758;SDS011;65701;45.588;5.186;2022-12-18T13:18:15;3.50;;;3.50;;
76758;SDS011;65701;45.588;5.186;2022-12-18T13:23:34;5.00;;;3.00;;
76758;SDS011;65701;45.588;5.186;2022-12-18T13:36:40;8.00;;;4.00;;
76758;SDS011;65701;45.588;5.186;2022-12-18T13:41:50;2.75;;;2.75;;
76758;SDS011;65701;45.588;5.186;2022-12-18T13:44:37;2.75;;;2.25;;
76758;SDS011;65701;45.588;5.186;2022-12-18T13:50:20;3.25;;;3.25;;
76758;SDS011;65701;45.588;5.186;2022-12-18T13:52:48;3.50;;;3.00;;
76758;SDS011;65701;45.588;5.186;2022-12-18T13:55:18;3.00;;;3.00;;
76758;SDS011;65701;45.588;5.186;2022-12-18T13:57:45;0.75;;;0.75;;
76758;SDS011;65701;45.588;5.186;2022-12-18T14:00:25;3.00;;;2.00;;
76758;SDS011;65701;45.588;5.186;2022-12-18T14:02:54;2.75;;;2.75;;
76758;SDS011;65701;45.588;5.186;2022-12-18T14:05:24;3.00;;;3.00;;
76758;SDS011;65701;45.588;5.186;2022-12-18T14:08:00;2.00;;;2.00;;
76758;SDS011;65701;45.588;5.186;2022-12-18T14:10:44;2.75;;;2.75;;
76758;SDS011;65701;45.588;5.186;2022-12-18T14:13:17;3.75;;;3.75;;
76758;SDS011;65701;45.588;5.186;2022-12-18T14:15:54;5.00;;;3.25;;
76758;SDS011;65701;45.588;5.186;2022-12-18T14:19:03;3.50;;;2.00;;
76758;SDS011;65701;45.588;5.186;2022-12-18T14:21:23;3.50;;;3.50;;
76758;SDS011;65701;45.588;5.186;2022-12-18T14:26:40;4.00;;;2.00;;
76758;SDS011;65701;45.588;5.186;2022-12-18T14:29:21;4.00;;;2.75;;
76758;SDS011;65701;45.588;5.186;2022-12-18T14:32:11;4.50;;;1.50;;
76758;SDS011;65701;45.588;5.186;2022-12-18T14:34:41;3.00;;;1.50;;
76758;SDS011;65701;45.588;5.186;2022-12-18T14:37:09;2.00;;;2.00;;
76758;SDS011;65701;45.588;5.186;2022-12-18T14:39:44;4.00;;;2.75;;
76758;SDS011;65701;45.588;5.186;2022-12-18T14:42:34;3.00;;;2.50;;
76758;SDS011;65701;45.588;5.186;2022-12-18T14:48:08;3.00;;;3.00;;
76758;SDS011;65701;45.588;5.186;2022-12-18T14:50:36;2.25;;;2.25;;
76758;SDS011;65701;45.588;5.186;2022-12-18T14:53:04;3.25;;;3.25;;
76758;SDS011;65701;45.588;5.186;2022-12-18T14:55:31;3.00;;;3.00;;
76758;SDS011;65701;45.588;5.186;2022-12-18T14:57:58;3.00;;;3.00;;
76758;SDS011;65701;45.588;5.186;2022-12-18T15:00:25;2.00;;;2.00;;
76758;SDS011;65701;45.588;5.186;2022-12-18T15:02:56;4.50;;;4.50;;
76758;SDS011;65701;45.588;5.186;2022-12-18T15:05:25;3.00;;;3.00;;
76758;SDS011;65701;45.588;5.186;2022-12-18T15:08:01;2.75;;;2.75;;
76758;SDS011;65701;45.588;5.186;2022-12-18T15:10:33;6.00;;;6.00;;
76758;SDS011;65701;45.588;5.186;2022-12-18T15:23:14;10.75;;;9.25;;
76758;SDS011;65701;45.588;5.186;2022-12-18T15:26:11;9.25;;;6.00;;
76758;SDS011;65701;45.588;5.186;2022-12-18T15:31:35;2.00;;;2.00;;
76758;SDS011;65701;45.588;5.186;2022-12-18T15:36:32;7.00;;;4.50;;
76758;SDS011;65701;45.588;5.186;2022-12-18T15:39:02;18.00;;;16.00;;
76758;SDS011;65701;45.588;5.186;2022-12-18T15:41:31;4.50;;;4.50;;
76758;SDS011;65701;45.588;5.186;2022-12-18T15:44:02;7.25;;;5.00;;
76758;SDS011;65701;45.588;5.186;2022-12-18T15:46:49;7.00;;;6.00;;
76758;SDS011;65701;45.588;5.186;2022-12-18T15:49:16;21.75;;;20.25;;
76758;SDS011;65701;45.588;5.186;2022-12-18T15:51:43;18.50;;;15.25;;
76758;SDS011;65701;45.588;5.186;2022-12-18T15:54:12;4.50;;;4.50;;
76758;SDS011;65701;45.588;5.186;2022-12-18T15:56:41;34.25;;;32.00;;
76758;SDS011;65701;45.588;5.186;2022-12-18T15:59:26;30.00;;;26.50;;
76758;SDS011;65701;45.588;5.186;2022-12-18T16:01:56;18.00;;;18.00;;
76758;SDS011;65701;45.588;5.186;2022-12-18T16:04:23;9.00;;;6.75;;
76758;SDS011;65701;45.588;5.186;2022-12-18T16:06:53;42.00;;;36.50;;
76758;SDS011;65701;45.588;5.186;2022-12-18T16:09:23;60.75;;;50.00;;
76758;SDS011;65701;45.588;5.186;2022-12-18T16:11:50;4.00;;;2.00;;
76758;SDS011;65701;45.588;5.186;2022-12-18T16:14:18;13.50;;;11.50;;
76758;SDS011;65701;45.588;5.186;2022-12-18T16:16:46;3.00;;;3.00;;
76758;SDS011;65701;45.588;5.186;2022-12-18T16:19:15;9.50;;;6.75;;
76758;SDS011;65701;45.588;5.186;2022-12-18T16:21:42;8.25;;;8.25;;
76758;SDS011;65701;45.588;5.186;2022-12-18T16:24:11;29.75;;;26.00;;
76758;SDS011;65701;45.588;5.186;2022-12-18T16:26:40;5.75;;;5.75;;
76758;SDS011;65701;45.588;5.186;2022-12-18T16:29:07;2.75;;;2.25;;
76758;SDS011;65701;45.588;5.186;2022-12-18T16:31:33;17.75;;;17.75;;
76758;SDS011;65701;45.588;5.186;2022-12-18T16:36:49;13.00;;;13.00;;
76758;SDS011;65701;45.588;5.186;2022-12-18T16:39:15;15.25;;;14.50;;
76758;SDS011;65701;45.588;5.186;2022-12-18T16:41:41;12.25;;;12.25;;
76758;SDS011;65701;45.588;5.186;2022-12-18T16:44:07;18.50;;;16.50;;
76758;SDS011;65701;45.588;5.186;2022-12-18T16:46:32;16.75;;;16.00;;
76758;SDS011;65701;45.588;5.186;2022-12-18T16:48:58;20.00;;;16.75;;
76758;SDS011;65701;45.588;5.186;2022-12-18T16:51:25;16.50;;;14.50;;
76758;SDS011;65701;45.588;5.186;2022-12-18T16:53:51;17.75;;;17.25;;
76758;SDS011;65701;45.588;5.186;2022-12-18T16:56:18;21.25;;;18.50;;
76758;SDS011;65701;45.588;5.186;2022-12-18T16:58:43;21.50;;;18.00;;
76758;SDS011;65701;45.588;5.186;2022-12-18T17:01:15;23.00;;;20.50;;
76758;SDS011;65701;45.588;5.186;2022-12-18T17:03:41;18.75;;;17.50;;
76758;SDS011;65701;45.588;5.186;2022-12-18T17:06:06;23.50;;;21.50;;
76758;SDS011;65701;45.588;5.186;2022-12-18T17:08:32;22.25;;;20.75;;
76758;SDS011;65701;45.588;5.186;2022-12-18T17:11:06;17.00;;;17.00;;
76758;SDS011;65701;45.588;5.186;2022-12-18T17:13:32;20.75;;;20.75;;
76758;SDS011;65701;45.588;5.186;2022-12-18T17:16:02;23.00;;;19.50;;
76758;SDS011;65701;45.588;5.186;2022-12-18T17:18:28;33.00;;;31.50;;
76758;SDS011;65701;45.588;5.186;2022-12-18T17:20:58;34.25;;;30.00;;
76758;SDS011;65701;45.588;5.186;2022-12-18T17:23:25;26.50;;;22.50;;
76758;SDS011;65701;45.588;5.186;2022-12-18T17:25:58;73.50;;;59.00;;
76758;SDS011;65701;45.588;5.186;2022-12-18T17:28:27;29.00;;;27.50;;
76758;SDS011;65701;45.588;5.186;2022-12-18T17:30:53;22.75;;;22.00;;
76758;SDS011;65701;45.588;5.186;2022-12-18T17:33:20;23.75;;;23.75;;
76758;SDS011;65701;45.588;5.186;2022-12-18T17:35:46;23.50;;;18.75;;
76758;SDS011;65701;45.588;5.186;2022-12-18T17:38:12;30.50;;;28.25;;
76758;SDS011;65701;45.588;5.186;2022-12-18T17:40:38;24.00;;;19.00;;
76758;SDS011;65701;45.588;5.186;2022-12-18T17:43:07;36.00;;;34.00;;
76758;SDS011;65701;45.588;5.186;2022-12-18T17:45:37;41.00;;;35.00;;
76758;SDS011;65701;45.588;5.186;2022-12-18T17:48:04;29.50;;;25.50;;
76758;SDS011;65701;45.588;5.186;2022-12-18T17:50:33;28.50;;;25.00;;
76758;SDS011;65701;45.588;5.186;2022-12-18T17:52:59;28.50;;;26.50;;
76758;SDS011;65701;45.588;5.186;2022-12-18T17:55:25;28.50;;;25.25;;
76758;SDS011;65701;45.588;5.186;2022-12-18T17:57:52;24.00;;;21.25;;
76758;SDS011;65701;45.588;5.186;2022-12-18T18:00:18;30.50;;;26.75;;
76758;SDS011;65701;45.588;5.186;2022-12-18T18:02:44;34.75;;;32.25;;
76758;SDS011;65701;45.588;5.186;2022-12-18T18:05:09;31.75;;;26.25;;
76758;SDS011;65701;45.588;5.186;2022-12-18T18:07:36;29.50;;;27.75;;
76758;SDS011;65701;45.588;5.186;2022-12-18T18:10:02;27.25;;;23.25;;
76758;SDS011;65701;45.588;5.186;2022-12-18T18:12:28;30.75;;;28.00;;
76758;SDS011;65701;45.588;5.186;2022-12-18T18:15:12;29.50;;;28.25;;
76758;SDS011;65701;45.588;5.186;2022-12-18T18:17:37;28.50;;;26.75;;
76758;SDS011;65701;45.588;5.186;2022-12-18T18:20:03;19.00;;;17.00;;
76758;SDS011;65701;45.588;5.186;2022-12-18T18:22:30;10.25;;;9.00;;
76758;SDS011;65701;45.588;5.186;2022-12-18T18:24:56;11.50;;;10.25;;
76758;SDS011;65701;45.588;5.186;2022-12-18T18:27:21;11.00;;;9.00;;
76758;SDS011;65701;45.588;5.186;2022-12-18T18:29:47;7.25;;;7.25;;
76758;SDS011;65701;45.588;5.186;2022-12-18T18:32:12;15.00;;;7.75;;
76758;SDS011;65701;45.588;5.186;2022-12-18T18:34:38;9.25;;;8.50;;
76758;SDS011;65701;45.588;5.186;2022-12-18T18:37:04;7.00;;;7.00;;
76758;SDS011;65701;45.588;5.186;2022-12-18T18:39:29;7.00;;;7.00;;
76758;SDS011;65701;45.588;5.186;2022-12-18T18:41:55;8.25;;;8.25;;
76758;SDS011;65701;45.588;5.186;2022-12-18T18:44:21;13.25;;;8.00;;
76758;SDS011;65701;45.588;5.186;2022-12-18T18:46:46;8.00;;;8.00;;
76758;SDS011;65701;45.588;5.186;2022-12-18T18:49:12;9.00;;;8.25;;
76758;SDS011;65701;45.588;5.186;2022-12-18T18:51:39;10.50;;;9.00;;
76758;SDS011;65701;45.588;5.186;2022-12-18T18:54:05;9.50;;;8.00;;
76758;SDS011;65701;45.588;5.186;2022-12-18T18:56:31;9.00;;;9.00;;
76758;SDS011;65701;45.588;5.186;2022-12-18T18:58:57;8.25;;;7.50;;
76758;SDS011;65701;45.588;5.186;2022-12-18T19:01:23;16.00;;;16.00;;
76758;SDS011;65701;45.588;5.186;2022-12-18T19:03:50;26.75;;;26.00;;
76758;SDS011;65701;45.588;5.186;2022-12-18T19:06:17;10.00;;;8.00;;
76758;SDS011;65701;45.588;5.186;2022-12-18T19:08:44;7.50;;;7.50;;
76758;SDS011;65701;45.588;5.186;2022-12-18T19:11:11;8.50;;;7.00;;
76758;SDS011;65701;45.588;5.186;2022-12-18T19:13:56;8.50;;;8.50;;
76758;SDS011;65701;45.588;5.186;2022-12-18T19:16:22;18.00;;;16.75;;
76758;SDS011;65701;45.588;5.186;2022-12-18T19:18:49;10.25;;;8.75;;
76758;SDS011;65701;45.588;5.186;2022-12-18T19:21:15;20.50;;;18.00;;
76758;SDS011;65701;45.588;5.186;2022-12-18T19:23:40;15.00;;;14.50;;
76758;SDS011;65701;45.588;5.186;2022-12-18T19:26:06;17.00;;;16.25;;
76758;SDS011;65701;45.588;5.186;2022-12-18T19:28:33;27.75;;;22.50;;
76758;SDS011;65701;45.588;5.186;2022-12-18T19:30:59;22.00;;;15.00;;
76758;SDS011;65701;45.588;5.186;2022-12-18T19:33:28;5.25;;;5.00;;
76758;SDS011;65701;45.588;5.186;2022-12-18T19:35:55;8.75;;;8.75;;
76758;SDS011;65701;45.588;5.186;2022-12-18T19:38:20;10.00;;;10.00;;
76758;SDS011;65701;45.588;5.186;2022-12-18T19:40:46;11.00;;;11.00;;
76758;SDS011;65701;45.588;5.186;2022-12-18T19:43:15;8.00;;;5.75;;
76758;SDS011;65701;45.588;5.186;2022-12-18T19:45:41;10.25;;;8.00;;
76758;SDS011;65701;45.588;5.186;2022-12-18T19:48:08;13.00;;;8.75;;
76758;SDS011;65701;45.588;5.186;2022-12-18T19:50:35;7.50;;;7.00;;
76758;SDS011;65701;45.588;5.186;2022-12-18T19:53:04;10.00;;;6.75;;
76758;SDS011;65701;45.588;5.186;2022-12-18T19:55:30;7.75;;;7.75;;
76758;SDS011;65701;45.588;5.186;2022-12-18T19:57:56;11.25;;;10.00;;
76758;SDS011;65701;45.588;5.186;2022-12-18T20:00:22;7.50;;;7.50;;
76758;SDS011;65701;45.588;5.186;2022-12-18T20:02:48;10.75;;;8.75;;
76758;SDS011;65701;45.588;5.186;2022-12-18T20:05:13;9.25;;;9.00;;
76758;SDS011;65701;45.588;5.186;2022-12-18T20:07:39;9.00;;;9.00;;
76758;SDS011;65701;45.588;5.186;2022-12-18T20:10:05;8.75;;;8.75;;
76758;SDS011;65701;45.588;5.186;2022-12-18T20:12:31;7.50;;;5.00;;
76758;SDS011;65701;45.588;5.186;2022-12-18T20:14:57;11.00;;;10.00;;
76758;SDS011;65701;45.588;5.186;2022-12-18T20:17:23;12.25;;;9.00;;
76758;SDS011;65701;45.588;5.186;2022-12-18T20:19:48;12.25;;;9.25;;
76758;SDS011;65701;45.588;5.186;2022-12-18T20:22:14;9.00;;;9.00;;
76758;SDS011;65701;45.588;5.186;2022-12-18T20:24:39;8.00;;;7.50;;
76758;SDS011;65701;45.588;5.186;2022-12-18T20:27:04;8.00;;;8.00;;
76758;SDS011;65701;45.588;5.186;2022-12-18T20:29:30;10.00;;;9.00;;
76758;SDS011;65701;45.588;5.186;2022-12-18T20:31:56;8.25;;;7.75;;
76758;SDS011;65701;45.588;5.186;2022-12-18T20:34:21;8.75;;;8.75;;
76758;SDS011;65701;45.588;5.186;2022-12-18T20:36:47;15.00;;;13.75;;
76758;SDS011;65701;45.588;5.186;2022-12-18T20:39:12;8.00;;;5.25;;
76758;SDS011;65701;45.588;5.186;2022-12-18T20:41:38;9.25;;;9.25;;
76758;SDS011;65701;45.588;5.186;2022-12-18T20:44:04;9.00;;;9.00;;
76758;SDS011;65701;45.588;5.186;2022-12-18T20:46:31;9.25;;;8.25;;
76758;SDS011;65701;45.588;5.186;2022-12-18T20:48:57;7.25;;;7.25;;
76758;SDS011;65701;45.588;5.186;2022-12-18T20:51:22;14.50;;;8.00;;
76758;SDS011;65701;45.588;5.186;2022-12-18T20:53:48;9.00;;;9.00;;
76758;SDS011;65701;45.588;5.186;2022-12-18T20:56:17;8.75;;;8.75;;
76758;SDS011;65701;45.588;5.186;2022-12-18T20:58:45;11.50;;;10.00;;
76758;SDS011;65701;45.588;5.186;2022-12-18T21:01:12;10.00;;;8.00;;
76758;SDS011;65701;45.588;5.186;2022-12-18T21:03:40;8.00;;;8.00;;
76758;SDS011;65701;45.588;5.186;2022-12-18T21:06:07;10.25;;;8.75;;
76758;SDS011;65701;45.588;5.186;2022-12-18T21:08:34;7.50;;;7.50;;
76758;SDS011;65701;45.588;5.186;2022-12-18T21:14:19;6.50;;;6.50;;
76758;SDS011;65701;45.588;5.186;2022-12-18T21:16:47;3.75;;;3.75;;
